RYR7P GMAD-LPPT
Flight info
| Callsign | RYR7P |
|---|---|
| Flight time | 1h 21m |
| Altitude | 38000 |
| Route | MOGBA UH300 ESS DCT TAKAV DCT VATZI |
| Aircraft | B738/M-SDE3FGILRWY/SB1 |
Departure
| Time | 2026-05-04 14:41 |
|---|---|
| Airport | Al Massira Airport (GMAD) |
Arrival
| Time | 2026-05-04 16:02 |
|---|---|
| Airport | Lisbon Humberto Delgado Airport (LPPT) |
| Time | Latitude | Longitude | Altitude | Speed | Heading |
|---|---|---|---|---|---|
| 2026-05-04 14:06 | 30.32880 | -9.41144 | 230 ft | 0 kts | 2° |
| 2026-05-04 14:32 | 30.32879 | -9.41144 | 231 ft | 2 kts | 2° |
| 2026-05-04 14:33 | 30.32857 | -9.41146 | 232 ft | 3 kts | 11° |
| 2026-05-04 14:33 | 30.32834 | -9.41154 | 232 ft | 3 kts | 28° |
| 2026-05-04 14:33 | 30.32816 | -9.41169 | 231 ft | 3 kts | 63° |
| 2026-05-04 14:33 | 30.32812 | -9.41185 | 232 ft | 1 kts | 92° |
| 2026-05-04 14:34 | 30.32812 | -9.41188 | 232 ft | 0 kts | 92° |
| 2026-05-04 14:36 | 30.32812 | -9.41162 | 232 ft | 8 kts | 92° |
| 2026-05-04 14:36 | 30.32809 | -9.41059 | 230 ft | 17 kts | 91° |
| 2026-05-04 14:36 | 30.32806 | -9.40911 | 230 ft | 19 kts | 91° |
| 2026-05-04 14:37 | 30.32803 | -9.40764 | 230 ft | 18 kts | 91° |
| 2026-05-04 14:37 | 30.32763 | -9.40666 | 230 ft | 14 kts | 162° |
| 2026-05-04 14:37 | 30.32652 | -9.40666 | 230 ft | 17 kts | 181° |
| 2026-05-04 14:37 | 30.32534 | -9.40669 | 230 ft | 15 kts | 181° |
| 2026-05-04 14:38 | 30.32442 | -9.40635 | 230 ft | 15 kts | 114° |
| 2026-05-04 14:38 | 30.32435 | -9.40487 | 230 ft | 23 kts | 91° |
| 2026-05-04 14:38 | 30.32430 | -9.40264 | 232 ft | 30 kts | 91° |
| 2026-05-04 14:38 | 30.32424 | -9.40023 | 230 ft | 29 kts | 91° |
| 2026-05-04 14:39 | 30.32418 | -9.39797 | 230 ft | 27 kts | 91° |
| 2026-05-04 14:39 | 30.32414 | -9.39607 | 230 ft | 18 kts | 91° |
| 2026-05-04 14:39 | 30.32382 | -9.39499 | 230 ft | 14 kts | 152° |
| 2026-05-04 14:40 | 30.32230 | -9.39506 | 230 ft | 2 kts | 235° |
| 2026-05-04 14:40 | 30.32225 | -9.39542 | 230 ft | 12 kts | 267° |
| 2026-05-04 14:40 | 30.32234 | -9.39951 | 230 ft | 90 kts | 271° |
| 2026-05-04 14:40 | 30.32250 | -9.40927 | 252 ft | 151 kts | 268° |
| 2026-05-04 14:41 | 30.32294 | -9.42163 | 960 ft | 153 kts | 272° |
| 2026-05-04 14:41 | 30.32351 | -9.43394 | 1801 ft | 155 kts | 270° |
| 2026-05-04 14:41 | 30.32489 | -9.46332 | 2843 ft | 201 kts | 275° |
| 2026-05-04 14:42 | 30.32231 | -9.49763 | 4179 ft | 225 kts | 248° |
| 2026-05-04 14:42 | 30.31363 | -9.51274 | 5125 ft | 229 kts | 230° |
| 2026-05-04 14:42 | 30.30222 | -9.52661 | 5697 ft | 250 kts | 228° |
| 2026-05-04 14:43 | 30.28960 | -9.54170 | 6142 ft | 273 kts | 228° |
| 2026-05-04 14:43 | 30.27655 | -9.55801 | 6986 ft | 276 kts | 237° |
| 2026-05-04 14:43 | 30.26905 | -9.57806 | 7966 ft | 271 kts | 257° |
| 2026-05-04 14:43 | 30.26454 | -9.59925 | 8953 ft | 271 kts | 258° |
| 2026-05-04 14:44 | 30.26000 | -9.62052 | 9895 ft | 273 kts | 258° |
| 2026-05-04 14:44 | 30.25691 | -9.63482 | 10390 ft | 280 kts | 258° |
| 2026-05-04 14:44 | 30.25195 | -9.65765 | 10631 ft | 306 kts | 257° |
| 2026-05-04 14:44 | 30.24661 | -9.68220 | 11117 ft | 319 kts | 259° |
| 2026-05-04 14:45 | 30.24645 | -9.70777 | 11867 ft | 323 kts | 285° |
| 2026-05-04 14:45 | 30.25756 | -9.73030 | 12750 ft | 329 kts | 313° |
| 2026-05-04 14:45 | 30.27694 | -9.74427 | 13559 ft | 341 kts | 338° |
| 2026-05-04 14:45 | 30.29992 | -9.75214 | 14310 ft | 347 kts | 338° |
| 2026-05-04 14:46 | 30.32260 | -9.76233 | 15008 ft | 351 kts | 332° |
| 2026-05-04 14:46 | 30.34552 | -9.77287 | 15751 ft | 360 kts | 341° |
| 2026-05-04 14:46 | 30.37080 | -9.77637 | 16506 ft | 372 kts | 357° |
| 2026-05-04 14:46 | 30.39699 | -9.77449 | 17249 ft | 379 kts | 0° |
| 2026-05-04 14:47 | 30.42324 | -9.77187 | 17933 ft | 386 kts | 1° |
| 2026-05-04 14:47 | 30.45027 | -9.76913 | 18590 ft | 391 kts | 0° |
| 2026-05-04 14:47 | 30.47758 | -9.76652 | 19258 ft | 395 kts | 360° |
| 2026-05-04 14:47 | 30.50510 | -9.76406 | 19953 ft | 398 kts | 359° |
| 2026-05-04 14:48 | 30.53244 | -9.76173 | 20619 ft | 401 kts | 359° |
| 2026-05-04 14:48 | 30.56047 | -9.75937 | 21272 ft | 405 kts | 358° |
| 2026-05-04 14:48 | 30.58867 | -9.75698 | 21919 ft | 409 kts | 358° |
| 2026-05-04 14:48 | 30.61727 | -9.75453 | 22572 ft | 412 kts | 358° |
| 2026-05-04 14:49 | 30.64603 | -9.75207 | 23208 ft | 416 kts | 358° |
| 2026-05-04 14:49 | 30.67477 | -9.74958 | 23782 ft | 420 kts | 358° |
| 2026-05-04 14:49 | 30.70412 | -9.74703 | 24288 ft | 423 kts | 358° |
| 2026-05-04 14:49 | 30.73366 | -9.74446 | 24796 ft | 427 kts | 358° |
| 2026-05-04 14:50 | 30.76349 | -9.74188 | 25269 ft | 431 kts | 357° |
| 2026-05-04 14:50 | 30.79349 | -9.73927 | 25809 ft | 432 kts | 357° |
| 2026-05-04 14:50 | 30.82330 | -9.73667 | 26309 ft | 435 kts | 357° |
| 2026-05-04 14:50 | 30.85373 | -9.73403 | 26783 ft | 439 kts | 357° |
| 2026-05-04 14:51 | 30.88437 | -9.73137 | 27259 ft | 443 kts | 357° |
| 2026-05-04 14:51 | 30.91535 | -9.72868 | 27655 ft | 447 kts | 357° |
| 2026-05-04 14:51 | 30.94615 | -9.72599 | 28094 ft | 451 kts | 357° |
| 2026-05-04 14:51 | 30.97757 | -9.72324 | 28565 ft | 453 kts | 357° |
| 2026-05-04 14:52 | 31.00922 | -9.72048 | 29011 ft | 456 kts | 356° |
| 2026-05-04 14:52 | 31.04104 | -9.71774 | 29420 ft | 459 kts | 356° |
| 2026-05-04 14:52 | 31.07313 | -9.71501 | 29833 ft | 463 kts | 356° |
| 2026-05-04 14:52 | 31.10495 | -9.71232 | 30198 ft | 466 kts | 356° |
| 2026-05-04 14:53 | 31.13741 | -9.70957 | 30549 ft | 468 kts | 356° |
| 2026-05-04 14:53 | 31.17003 | -9.70679 | 30937 ft | 469 kts | 356° |
| 2026-05-04 14:53 | 31.20270 | -9.70399 | 31343 ft | 470 kts | 356° |
| 2026-05-04 14:53 | 31.23540 | -9.70117 | 31755 ft | 470 kts | 356° |
| 2026-05-04 14:54 | 31.26762 | -9.69839 | 32239 ft | 468 kts | 355° |
| 2026-05-04 14:54 | 31.30006 | -9.69559 | 32754 ft | 465 kts | 355° |
| 2026-05-04 14:54 | 31.33237 | -9.69281 | 33236 ft | 464 kts | 355° |
| 2026-05-04 14:54 | 31.36465 | -9.69005 | 33676 ft | 463 kts | 354° |
| 2026-05-04 14:55 | 31.39684 | -9.68730 | 34097 ft | 462 kts | 354° |
| 2026-05-04 14:55 | 31.42888 | -9.68475 | 34471 ft | 460 kts | 353° |
| 2026-05-04 14:55 | 31.46039 | -9.68259 | 34874 ft | 458 kts | 353° |
| 2026-05-04 14:55 | 31.49222 | -9.68057 | 35255 ft | 457 kts | 353° |
| 2026-05-04 14:56 | 31.52395 | -9.67860 | 35610 ft | 456 kts | 353° |
| 2026-05-04 14:56 | 31.55567 | -9.67663 | 35946 ft | 456 kts | 353° |
| 2026-05-04 14:56 | 31.58735 | -9.67462 | 36299 ft | 455 kts | 353° |
| 2026-05-04 14:56 | 31.61905 | -9.67258 | 36665 ft | 454 kts | 353° |
| 2026-05-04 14:57 | 31.65062 | -9.67053 | 37010 ft | 454 kts | 353° |
| 2026-05-04 14:57 | 31.68216 | -9.66847 | 37349 ft | 453 kts | 353° |
| 2026-05-04 14:57 | 31.71326 | -9.66642 | 37735 ft | 452 kts | 353° |
| 2026-05-04 14:57 | 31.74471 | -9.66435 | 38027 ft | 452 kts | 353° |
| 2026-05-04 14:58 | 31.80837 | -9.66022 | 38033 ft | 458 kts | 353° |
| 2026-05-04 14:58 | 31.87143 | -9.65600 | 38023 ft | 452 kts | 353° |
| 2026-05-04 14:59 | 31.93406 | -9.65178 | 38042 ft | 449 kts | 353° |
| 2026-05-04 15:00 | 32.02755 | -9.64564 | 38040 ft | 450 kts | 353° |
| 2026-05-04 15:00 | 32.09030 | -9.64150 | 38051 ft | 451 kts | 353° |
| 2026-05-04 15:01 | 32.18400 | -9.63527 | 38051 ft | 452 kts | 353° |
| 2026-05-04 15:01 | 32.24694 | -9.63107 | 38049 ft | 452 kts | 353° |
| 2026-05-04 15:02 | 32.30965 | -9.62689 | 38062 ft | 453 kts | 353° |
| 2026-05-04 15:02 | 32.37281 | -9.62267 | 38060 ft | 454 kts | 353° |
| 2026-05-04 15:03 | 32.43604 | -9.61844 | 38062 ft | 454 kts | 353° |
| 2026-05-04 15:03 | 32.49880 | -9.61423 | 38067 ft | 454 kts | 353° |
| 2026-05-04 15:04 | 32.56205 | -9.60999 | 38068 ft | 456 kts | 353° |
| 2026-05-04 15:04 | 32.62552 | -9.60572 | 38078 ft | 456 kts | 353° |
| 2026-05-04 15:05 | 32.68898 | -9.60145 | 38078 ft | 456 kts | 353° |
| 2026-05-04 15:05 | 32.75205 | -9.59719 | 38069 ft | 456 kts | 353° |
| 2026-05-04 15:06 | 32.81563 | -9.59290 | 38078 ft | 457 kts | 354° |
| 2026-05-04 15:07 | 32.91068 | -9.58648 | 38088 ft | 457 kts | 354° |
| 2026-05-04 15:07 | 32.97451 | -9.58216 | 38080 ft | 458 kts | 354° |
| 2026-05-04 15:08 | 33.03779 | -9.57786 | 38086 ft | 458 kts | 354° |
| 2026-05-04 15:08 | 33.10158 | -9.57353 | 38087 ft | 458 kts | 354° |
| 2026-05-04 15:09 | 33.16531 | -9.56919 | 38089 ft | 458 kts | 354° |
| 2026-05-04 15:09 | 33.22908 | -9.56485 | 38085 ft | 458 kts | 354° |
| 2026-05-04 15:10 | 33.32424 | -9.55835 | 38134 ft | 458 kts | 354° |
| 2026-05-04 15:11 | 33.41999 | -9.55181 | 38097 ft | 459 kts | 354° |
| 2026-05-04 15:11 | 33.48362 | -9.54745 | 38093 ft | 460 kts | 354° |
| 2026-05-04 15:12 | 33.54758 | -9.54306 | 38098 ft | 460 kts | 354° |
| 2026-05-04 15:12 | 33.61158 | -9.53866 | 38113 ft | 460 kts | 354° |
| 2026-05-04 15:13 | 33.67529 | -9.53428 | 38097 ft | 461 kts | 354° |
| 2026-05-04 15:13 | 33.73947 | -9.52985 | 38099 ft | 461 kts | 354° |
| 2026-05-04 15:14 | 33.80368 | -9.52542 | 38109 ft | 461 kts | 354° |
| 2026-05-04 15:14 | 33.86782 | -9.52098 | 38118 ft | 462 kts | 354° |
| 2026-05-04 15:15 | 33.93171 | -9.51656 | 38110 ft | 462 kts | 354° |
| 2026-05-04 15:15 | 33.99614 | -9.51209 | 38100 ft | 462 kts | 354° |
| 2026-05-04 15:16 | 34.09222 | -9.50541 | 38101 ft | 462 kts | 354° |
| 2026-05-04 15:17 | 34.18885 | -9.49868 | 38111 ft | 462 kts | 354° |
| 2026-05-04 15:17 | 34.28506 | -9.49196 | 38103 ft | 462 kts | 354° |
| 2026-05-04 15:18 | 34.34899 | -9.48749 | 38105 ft | 462 kts | 354° |
| 2026-05-04 15:19 | 34.44551 | -9.48073 | 38111 ft | 461 kts | 354° |
| 2026-05-04 15:19 | 34.54119 | -9.47400 | 38102 ft | 460 kts | 354° |
| 2026-05-04 15:20 | 34.60521 | -9.46950 | 38105 ft | 459 kts | 354° |
| 2026-05-04 15:20 | 34.66912 | -9.46499 | 38107 ft | 459 kts | 354° |
| 2026-05-04 15:21 | 34.73248 | -9.46052 | 38114 ft | 458 kts | 353° |
| 2026-05-04 15:22 | 34.82789 | -9.45377 | 38103 ft | 456 kts | 353° |
| 2026-05-04 15:22 | 34.92239 | -9.44707 | 38107 ft | 455 kts | 353° |
| 2026-05-04 15:23 | 34.98555 | -9.44258 | 38105 ft | 453 kts | 353° |
| 2026-05-04 15:23 | 35.04843 | -9.43811 | 38104 ft | 452 kts | 353° |
| 2026-05-04 15:24 | 35.17355 | -9.42920 | 38109 ft | 451 kts | 353° |
| 2026-05-04 15:25 | 35.23617 | -9.42472 | 38101 ft | 449 kts | 353° |
| 2026-05-04 15:26 | 35.32946 | -9.41804 | 38100 ft | 448 kts | 353° |
| 2026-05-04 15:26 | 35.42285 | -9.41135 | 38114 ft | 448 kts | 353° |
| 2026-05-04 15:27 | 35.51588 | -9.40466 | 38103 ft | 448 kts | 353° |
| 2026-05-04 15:28 | 35.60927 | -9.39793 | 38106 ft | 447 kts | 353° |
| 2026-05-04 15:29 | 35.70278 | -9.39118 | 38104 ft | 447 kts | 353° |
| 2026-05-04 15:30 | 35.91012 | -9.37614 | 38113 ft | 449 kts | 353° |
| 2026-05-04 15:31 | 36.01412 | -9.36850 | 38100 ft | 451 kts | 355° |
| 2026-05-04 15:32 | 36.10801 | -9.34216 | 38108 ft | 466 kts | 6° |
| 2026-05-04 15:32 | 36.16016 | -9.32460 | 38117 ft | 467 kts | 6° |
| 2026-05-04 15:34 | 36.31730 | -9.27424 | 38103 ft | 466 kts | 5° |
| 2026-05-04 15:34 | 36.41174 | -9.24446 | 38127 ft | 466 kts | 6° |
| 2026-05-04 15:35 | 36.50584 | -9.21466 | 38099 ft | 466 kts | 6° |
| 2026-05-04 15:35 | 36.53733 | -9.20468 | 37711 ft | 470 kts | 6° |
| 2026-05-04 15:36 | 36.60022 | -9.18466 | 36730 ft | 462 kts | 6° |
| 2026-05-04 15:36 | 36.63139 | -9.17472 | 36205 ft | 460 kts | 6° |
| 2026-05-04 15:36 | 36.66238 | -9.16484 | 35675 ft | 458 kts | 6° |
| 2026-05-04 15:37 | 36.69330 | -9.15499 | 35083 ft | 458 kts | 6° |
| 2026-05-04 15:37 | 36.72383 | -9.14527 | 34505 ft | 457 kts | 7° |
| 2026-05-04 15:37 | 36.75462 | -9.13545 | 33881 ft | 456 kts | 7° |
| 2026-05-04 15:37 | 36.78533 | -9.12564 | 33184 ft | 455 kts | 7° |
| 2026-05-04 15:38 | 36.81599 | -9.11584 | 32565 ft | 453 kts | 7° |
| 2026-05-04 15:38 | 36.84647 | -9.10608 | 31926 ft | 451 kts | 7° |
| 2026-05-04 15:38 | 36.87677 | -9.09637 | 31361 ft | 448 kts | 7° |
| 2026-05-04 15:38 | 36.90680 | -9.08672 | 30956 ft | 442 kts | 7° |
| 2026-05-04 15:39 | 36.93608 | -9.07730 | 30493 ft | 437 kts | 7° |
| 2026-05-04 15:39 | 36.96544 | -9.06786 | 30021 ft | 432 kts | 7° |
| 2026-05-04 15:39 | 37.02338 | -9.05148 | 28695 ft | 422 kts | 0° |
| 2026-05-04 15:40 | 37.05265 | -9.04764 | 27900 ft | 421 kts | 358° |
| 2026-05-04 15:40 | 37.08173 | -9.04462 | 27349 ft | 417 kts | 358° |
| 2026-05-04 15:40 | 37.11050 | -9.04176 | 26855 ft | 412 kts | 358° |
| 2026-05-04 15:40 | 37.13889 | -9.03883 | 26417 ft | 406 kts | 358° |
| 2026-05-04 15:41 | 37.16661 | -9.03581 | 25961 ft | 402 kts | 358° |
| 2026-05-04 15:41 | 37.19429 | -9.03268 | 25512 ft | 397 kts | 358° |
| 2026-05-04 15:41 | 37.22170 | -9.03148 | 24856 ft | 391 kts | 349° |
| 2026-05-04 15:41 | 37.24883 | -9.03527 | 24228 ft | 390 kts | 347° |
| 2026-05-04 15:42 | 37.27561 | -9.03954 | 23740 ft | 387 kts | 346° |
| 2026-05-04 15:42 | 37.30222 | -9.04381 | 23224 ft | 383 kts | 347° |
| 2026-05-04 15:42 | 37.32818 | -9.04790 | 22750 ft | 378 kts | 347° |
| 2026-05-04 15:42 | 37.35410 | -9.05188 | 22328 ft | 372 kts | 347° |
| 2026-05-04 15:43 | 37.37970 | -9.05575 | 21902 ft | 368 kts | 347° |
| 2026-05-04 15:43 | 37.40506 | -9.05953 | 21470 ft | 363 kts | 347° |
| 2026-05-04 15:43 | 37.43005 | -9.06323 | 21045 ft | 359 kts | 347° |
| 2026-05-04 15:43 | 37.45477 | -9.06689 | 20634 ft | 355 kts | 347° |
| 2026-05-04 15:44 | 37.47892 | -9.07045 | 20236 ft | 352 kts | 347° |
| 2026-05-04 15:44 | 37.50313 | -9.07402 | 19836 ft | 348 kts | 347° |
| 2026-05-04 15:44 | 37.52710 | -9.07755 | 19436 ft | 345 kts | 347° |
| 2026-05-04 15:44 | 37.55094 | -9.08107 | 19046 ft | 342 kts | 347° |
| 2026-05-04 15:45 | 37.57457 | -9.08457 | 18652 ft | 342 kts | 347° |
| 2026-05-04 15:45 | 37.59826 | -9.08808 | 18242 ft | 342 kts | 348° |
| 2026-05-04 15:45 | 37.62206 | -9.09162 | 17827 ft | 346 kts | 348° |
| 2026-05-04 15:45 | 37.64614 | -9.09521 | 17397 ft | 350 kts | 348° |
| 2026-05-04 15:46 | 37.66998 | -9.09874 | 16963 ft | 347 kts | 348° |
| 2026-05-04 15:46 | 37.69387 | -9.10225 | 16558 ft | 342 kts | 348° |
| 2026-05-04 15:46 | 37.71745 | -9.10572 | 16159 ft | 338 kts | 348° |
| 2026-05-04 15:46 | 37.74073 | -9.10915 | 15765 ft | 334 kts | 348° |
| 2026-05-04 15:47 | 37.76363 | -9.11253 | 15385 ft | 330 kts | 348° |
| 2026-05-04 15:47 | 37.78607 | -9.11586 | 15007 ft | 326 kts | 348° |
| 2026-05-04 15:47 | 37.80858 | -9.11920 | 14630 ft | 323 kts | 348° |
| 2026-05-04 15:47 | 37.83076 | -9.12249 | 14257 ft | 320 kts | 348° |
| 2026-05-04 15:48 | 37.85272 | -9.12576 | 13887 ft | 317 kts | 349° |
| 2026-05-04 15:48 | 37.87455 | -9.12901 | 13471 ft | 314 kts | 349° |
| 2026-05-04 15:48 | 37.91759 | -9.13542 | 12721 ft | 307 kts | 349° |
| 2026-05-04 15:49 | 37.93885 | -9.13859 | 12356 ft | 307 kts | 349° |
| 2026-05-04 15:49 | 37.95984 | -9.14174 | 11993 ft | 309 kts | 350° |
| 2026-05-04 15:49 | 37.98152 | -9.14499 | 11627 ft | 315 kts | 350° |
| 2026-05-04 15:49 | 38.00351 | -9.14829 | 11252 ft | 319 kts | 350° |
| 2026-05-04 15:50 | 38.02554 | -9.15158 | 10860 ft | 317 kts | 351° |
| 2026-05-04 15:50 | 38.04722 | -9.15480 | 10651 ft | 307 kts | 351° |
| 2026-05-04 15:50 | 38.06784 | -9.15785 | 10514 ft | 296 kts | 351° |
| 2026-05-04 15:50 | 38.08797 | -9.16084 | 10387 ft | 286 kts | 350° |
| 2026-05-04 15:51 | 38.10744 | -9.16374 | 10265 ft | 276 kts | 351° |
| 2026-05-04 15:51 | 38.12624 | -9.16654 | 10149 ft | 268 kts | 351° |
| 2026-05-04 15:51 | 38.14455 | -9.16929 | 9973 ft | 262 kts | 350° |
| 2026-05-04 15:51 | 38.16259 | -9.17199 | 9718 ft | 259 kts | 350° |
| 2026-05-04 15:52 | 38.18048 | -9.17466 | 9443 ft | 257 kts | 350° |
| 2026-05-04 15:52 | 38.19795 | -9.17729 | 9188 ft | 254 kts | 351° |
| 2026-05-04 15:52 | 38.21553 | -9.17996 | 8936 ft | 254 kts | 350° |
| 2026-05-04 15:52 | 38.23317 | -9.18262 | 8685 ft | 256 kts | 351° |
| 2026-05-04 15:53 | 38.25104 | -9.18532 | 8428 ft | 261 kts | 351° |
| 2026-05-04 15:53 | 38.26918 | -9.18807 | 8152 ft | 262 kts | 351° |
| 2026-05-04 15:53 | 38.28732 | -9.19080 | 7890 ft | 260 kts | 351° |
| 2026-05-04 15:53 | 38.30518 | -9.19349 | 7641 ft | 257 kts | 351° |
| 2026-05-04 15:54 | 38.32274 | -9.19610 | 7382 ft | 256 kts | 351° |
| 2026-05-04 15:54 | 38.34045 | -9.19876 | 7167 ft | 256 kts | 351° |
| 2026-05-04 15:54 | 38.35796 | -9.20141 | 7103 ft | 251 kts | 351° |
| 2026-05-04 15:54 | 38.37527 | -9.20402 | 6784 ft | 256 kts | 352° |
| 2026-05-04 15:55 | 38.39340 | -9.20677 | 6316 ft | 263 kts | 352° |
| 2026-05-04 15:55 | 38.41155 | -9.20950 | 5988 ft | 261 kts | 351° |
| 2026-05-04 15:55 | 38.42932 | -9.21219 | 5704 ft | 259 kts | 351° |
| 2026-05-04 15:55 | 38.44710 | -9.21487 | 5471 ft | 254 kts | 352° |
| 2026-05-04 15:56 | 38.46435 | -9.21747 | 5363 ft | 246 kts | 352° |
| 2026-05-04 15:56 | 38.48118 | -9.22001 | 5249 ft | 241 kts | 352° |
| 2026-05-04 15:56 | 38.49755 | -9.22248 | 5153 ft | 232 kts | 352° |
| 2026-05-04 15:56 | 38.51334 | -9.22486 | 5072 ft | 224 kts | 351° |
| 2026-05-04 15:57 | 38.52870 | -9.22720 | 4965 ft | 222 kts | 352° |
| 2026-05-04 15:57 | 38.54429 | -9.22957 | 4718 ft | 226 kts | 351° |
| 2026-05-04 15:57 | 38.55977 | -9.23192 | 4465 ft | 225 kts | 351° |
| 2026-05-04 15:57 | 38.57497 | -9.23422 | 4205 ft | 216 kts | 352° |
| 2026-05-04 15:58 | 38.58980 | -9.23590 | 4003 ft | 213 kts | 1° |
| 2026-05-04 15:58 | 38.60422 | -9.23123 | 3810 ft | 218 kts | 17° |
| 2026-05-04 15:58 | 38.61840 | -9.22366 | 3517 ft | 219 kts | 19° |
| 2026-05-04 15:58 | 38.63216 | -9.21603 | 3232 ft | 213 kts | 19° |
| 2026-05-04 15:59 | 38.64558 | -9.20875 | 2951 ft | 203 kts | 18° |
| 2026-05-04 15:59 | 38.65834 | -9.20192 | 2668 ft | 195 kts | 17° |
| 2026-05-04 15:59 | 38.67062 | -9.19533 | 2405 ft | 189 kts | 18° |
| 2026-05-04 15:59 | 38.68262 | -9.18890 | 2161 ft | 185 kts | 17° |
| 2026-05-04 16:00 | 38.69420 | -9.18269 | 1937 ft | 176 kts | 18° |
| 2026-05-04 16:00 | 38.70523 | -9.17676 | 1715 ft | 166 kts | 17° |
| 2026-05-04 16:00 | 38.71556 | -9.17120 | 1493 ft | 153 kts | 18° |
| 2026-05-04 16:00 | 38.72509 | -9.16612 | 1268 ft | 147 kts | 16° |
| 2026-05-04 16:01 | 38.73475 | -9.16077 | 1048 ft | 155 kts | 17° |
| 2026-05-04 16:01 | 38.74460 | -9.15549 | 838 ft | 153 kts | 17° |
| 2026-05-04 16:01 | 38.75428 | -9.15029 | 650 ft | 150 kts | 18° |
| 2026-05-04 16:01 | 38.76390 | -9.14520 | 428 ft | 150 kts | 16° |
| 2026-05-04 16:02 | 38.77328 | -9.14025 | 359 ft | 130 kts | 21° |
| 2026-05-04 16:02 | 38.77964 | -9.13684 | 354 ft | 68 kts | 22° |
| 2026-05-04 16:02 | 38.78376 | -9.13329 | 356 ft | 14 kts | 77° |
| 2026-05-04 16:03 | 38.78311 | -9.13267 | 351 ft | 14 kts | 198° |
| 2026-05-04 16:03 | 38.78223 | -9.13316 | 351 ft | 14 kts | 202° |
| 2026-05-04 16:03 | 38.78139 | -9.13360 | 355 ft | 13 kts | 202° |
| 2026-05-04 16:03 | 38.78050 | -9.13408 | 357 ft | 17 kts | 202° |
| 2026-05-04 16:04 | 38.77913 | -9.13480 | 356 ft | 23 kts | 202° |
| 2026-05-04 16:04 | 38.77636 | -9.13593 | 360 ft | 19 kts | 168° |
| 2026-05-04 16:04 | 38.77481 | -9.13552 | 352 ft | 27 kts | 168° |
| 2026-05-04 16:05 | 38.77289 | -9.13501 | 350 ft | 28 kts | 168° |
| 2026-05-04 16:05 | 38.77103 | -9.13451 | 357 ft | 26 kts | 168° |
| 2026-05-04 16:05 | 38.76785 | -9.13364 | 351 ft | 14 kts | 171° |
| 2026-05-04 16:06 | 38.76705 | -9.13420 | 353 ft | 13 kts | 214° |
| 2026-05-04 16:06 | 38.76600 | -9.13666 | 350 ft | 13 kts | 185° |
| 2026-05-04 16:07 | 38.76503 | -9.13645 | 350 ft | 7 kts | 168° |
| 2026-05-04 16:07 | 38.76473 | -9.13637 | 354 ft | 0 kts | 168° |